Time;durP1;ratioP1;P1;durP2;ratioP2;P2;SDS_P1;SDS_P2;PMS_P1;PMS_P2;Temp;Humidity;BMP_temperature;BMP_pressure;BME280_temperature;BME280_humidity;BME280_pressure;Samples;Min_cycle;Max_cycle;Signal;HPM_P1;HPM_P2
2023/06/08 00:04:57;;;;;;;13.40;10.30;;;;;;;13.94;100.00;99046.98;270554;1266;22532;-85
2023/06/08 00:11:02;;;;;;;15.70;10.50;;;;;;;13.86;100.00;99044.70;272175;1256;22597;-86
2023/06/08 00:17:05;;;;;;;14.40;10.90;;;;;;;13.83;100.00;99049.41;274171;1267;23551;-86
2023/06/08 00:23:09;;;;;;;13.70;9.60;;;;;;;13.89;100.00;99051.54;271514;1257;22493;-85
2023/06/08 00:29:13;;;;;;;12.80;9.90;;;;;;;13.99;100.00;99048.14;271620;1267;22315;-86
2023/06/08 00:35:15;;;;;;;13.50;10.10;;;;;;;14.08;100.00;99045.54;271823;1266;22333;-86
2023/06/08 00:41:20;;;;;;;13.50;10.40;;;;;;;14.15;100.00;99042.38;271297;1266;22441;-85
2023/06/08 00:47:23;;;;;;;12.80;9.90;;;;;;;14.23;100.00;99046.38;271624;1255;22508;-86
2023/06/08 00:53:28;;;;;;;13.60;9.50;;;;;;;14.31;100.00;99047.79;273011;1266;22305;-87
2023/06/08 00:59:32;;;;;;;17.80;10.20;;;;;;;14.46;100.00;99045.06;272968;1261;23215;-86
2023/06/08 01:05:34;;;;;;;13.20;10.00;;;;;;;14.51;100.00;99043.08;273213;1267;22477;-85
2023/06/08 01:12:30;;;;;;;14.40;11.20;;;;;;;14.55;100.00;99042.89;272759;1268;22400;-85
2023/06/08 01:18:41;;;;;;;26.90;14.00;;;;;;;14.65;100.00;99042.86;274236;1266;22509;-87
2023/06/08 01:24:52;;;;;;;22.40;13.00;;;;;;;14.76;100.00;99038.31;271655;1267;22534;-85
2023/06/08 01:30:54;;;;;;;29.00;15.60;;;;;;;14.85;100.00;99036.85;273014;1267;22291;-85
2023/06/08 01:37:55;;;;;;;44.20;22.30;;;;;;;14.93;100.00;99033.98;270297;1268;22524;-86
2023/06/08 01:44:01;;;;;;;64.50;22.20;;;;;;;14.98;100.00;99035.13;270029;1267;22539;-86
2023/06/08 01:50:04;;;;;;;35.90;16.70;;;;;;;15.04;100.00;99036.52;269989;1266;22598;-86
2023/06/08 01:56:06;;;;;;;46.30;23.40;;;;;;;15.08;100.00;99041.14;270243;1251;22523;-86
2023/06/08 02:02:28;;;;;;;52.40;24.20;;;;;;;15.12;100.00;99046.54;273649;1266;22422;-87
2023/06/08 02:09:11;;;;;;;48.40;20.50;;;;;;;15.17;100.00;99048.32;273075;1267;22521;-86
2023/06/08 02:15:15;;;;;;;69.00;25.10;;;;;;;15.17;100.00;99047.38;271553;1266;22408;-87
2023/06/08 02:21:59;;;;;;;77.50;29.60;;;;;;;15.17;100.00;99048.17;272242;1266;22575;-86
2023/06/08 02:28:26;;;;;;;46.80;20.10;;;;;;;15.21;100.00;99047.83;273002;1267;23407;-85
2023/06/08 02:34:28;;;;;;;61.60;17.60;;;;;;;15.20;100.00;99045.54;272929;1266;23468;-86
2023/06/08 02:40:35;;;;;;;47.20;18.30;;;;;;;15.20;100.00;99048.45;273866;1266;23604;-86
2023/06/08 02:46:38;;;;;;;55.70;18.00;;;;;;;15.23;100.00;99052.14;273704;1266;22151;-86
2023/06/08 02:52:42;;;;;;;39.40;17.30;;;;;;;15.25;100.00;99048.49;273914;1252;22308;-86
2023/06/08 02:58:46;;;;;;;38.10;16.40;;;;;;;15.26;100.00;99047.16;274002;1268;22382;-86
2023/06/08 03:05:07;;;;;;;36.70;15.30;;;;;;;15.28;100.00;99047.39;273982;1268;23527;-85
2023/06/08 03:11:10;;;;;;;41.90;16.60;;;;;;;15.25;100.00;99049.45;274002;1266;22507;-86
2023/06/08 03:17:16;;;;;;;39.90;15.80;;;;;;;15.26;100.00;99055.52;273797;1266;23548;-86
2023/06/08 03:23:22;;;;;;;54.10;20.80;;;;;;;15.26;100.00;99065.44;273236;1266;22297;-86
2023/06/08 03:29:26;;;;;;;57.40;22.20;;;;;;;15.22;100.00;99063.81;273830;1266;22320;-86
2023/06/08 03:35:28;;;;;;;47.70;20.60;;;;;;;15.20;100.00;99057.05;273864;1266;22311;-86
2023/06/08 03:41:59;;;;;;;50.30;20.90;;;;;;;15.25;100.00;99053.87;273626;1266;22280;-86
2023/06/08 03:48:28;;;;;;;49.70;20.30;;;;;;;15.31;100.00;99053.73;273821;1266;22381;-86
2023/06/08 03:54:36;;;;;;;46.90;18.90;;;;;;;15.36;100.00;99050.88;273826;1266;22338;-86
2023/06/08 04:00:38;;;;;;;47.10;19.30;;;;;;;15.42;100.00;99044.55;271581;1267;23064;-86
2023/06/08 04:06:44;;;;;;;50.10;19.30;;;;;;;15.45;100.00;99043.11;271308;1267;22507;-87
2023/06/08 04:12:47;;;;;;;63.70;20.80;;;;;;;15.48;100.00;99042.21;273921;1266;22305;-85
2023/06/08 04:19:09;;;;;;;43.40;22.20;;;;;;;15.50;100.00;99041.09;274063;1266;22329;-86
2023/06/08 04:25:12;;;;;;;32.00;18.90;;;;;;;15.47;100.00;99042.23;273674;1266;22766;-86
2023/06/08 04:31:16;;;;;;;32.50;18.30;;;;;;;15.45;100.00;99041.77;271243;1266;22581;-86
2023/06/08 04:37:19;;;;;;;28.80;17.10;;;;;;;15.44;100.00;99041.15;270977;1263;22552;-87
2023/06/08 04:43:30;;;;;;;27.30;17.20;;;;;;;15.44;100.00;99045.18;270967;1266;895912;-86
2023/06/08 04:49:34;;;;;;;28.40;18.40;;;;;;;15.41;100.00;99045.44;271947;1266;22353;-87
2023/06/08 04:55:37;;;;;;;24.40;16.80;;;;;;;15.42;100.00;99048.89;273917;1266;23181;-86
2023/06/08 05:01:39;;;;;;;29.40;18.30;;;;;;;15.47;100.00;99054.75;274098;1266;22396;-87
2023/06/08 05:07:44;;;;;;;24.80;18.00;;;;;;;15.50;100.00;99054.88;274102;1266;23333;-87
2023/06/08 05:13:50;;;;;;;24.10;17.10;;;;;;;15.48;100.00;99058.37;273591;1267;22331;-89
2023/06/08 05:19:54;;;;;;;25.20;18.00;;;;;;;15.40;100.00;99061.34;273632;1266;22382;-89
2023/06/08 05:26:01;;;;;;;24.30;17.60;;;;;;;15.28;100.00;99069.29;273293;1265;22444;-86
2023/06/08 05:32:04;;;;;;;28.30;19.70;;;;;;;15.25;100.00;99069.85;273582;1266;22367;-86
2023/06/08 05:38:06;;;;;;;25.30;18.80;;;;;;;15.23;100.00;99067.97;271546;1266;22533;-86
2023/06/08 05:44:08;;;;;;;28.80;19.80;;;;;;;15.21;100.00;99071.37;271850;1265;25167;-87
2023/06/08 05:50:14;;;;;;;26.60;19.50;;;;;;;15.18;100.00;99075.80;271143;1265;23278;-85
2023/06/08 05:56:52;;;;;;;23.70;17.50;;;;;;;15.21;100.00;99079.10;271697;1265;22582;-90
2023/06/08 06:02:54;;;;;;;26.00;18.50;;;;;;;15.49;100.00;99074.98;273193;1266;22435;-88
2023/06/08 06:08:56;;;;;;;25.70;18.90;;;;;;;15.73;100.00;99083.02;272096;1266;22436;-87
2023/06/08 06:15:38;;;;;;;30.40;20.70;;;;;;;15.84;100.00;99090.89;271714;1265;23061;-86
2023/06/08 06:22:00;;;;;;;34.80;23.50;;;;;;;15.90;100.00;99089.27;273134;1265;22335;-87
2023/06/08 06:28:42;;;;;;;29.90;21.50;;;;;;;15.98;100.00;99090.45;273831;1265;22238;-86
2023/06/08 06:35:01;;;;;;;30.60;21.80;;;;;;;16.05;100.00;99092.04;274033;1266;22200;-88
2023/06/08 06:41:23;;;;;;;29.70;21.00;;;;;;;16.10;100.00;99091.60;272701;1265;22623;-87
2023/06/08 06:47:26;;;;;;;29.00;20.90;;;;;;;16.17;100.00;99093.19;271963;1266;22573;-86
2023/06/08 06:53:29;;;;;;;32.20;22.00;;;;;;;16.27;100.00;99092.23;271079;1266;22621;-87
2023/06/08 06:59:40;;;;;;;35.30;24.40;;;;;;;16.43;100.00;99090.97;273556;1266;24005;-86
2023/06/08 07:05:45;;;;;;;35.40;24.90;;;;;;;16.51;100.00;99094.92;272566;1265;22558;-86
2023/06/08 07:11:51;;;;;;;35.40;24.80;;;;;;;16.44;100.00;99098.92;271317;1266;22290;-85
2023/06/08 07:17:54;;;;;;;42.10;28.70;;;;;;;16.37;100.00;99098.76;273979;1255;23450;-88
2023/06/08 07:24:21;;;;;;;41.90;28.10;;;;;;;16.27;100.00;99099.95;273934;1266;23421;-85
2023/06/08 07:30:29;;;;;;;39.50;26.40;;;;;;;16.28;100.00;99102.71;273856;1266;22915;-87
2023/06/08 07:36:37;;;;;;;40.00;25.90;;;;;;;16.33;100.00;99100.45;273204;1265;22514;-87
2023/06/08 07:42:58;;;;;;;42.30;26.50;;;;;;;16.29;100.00;99109.09;273482;1265;22765;-87
2023/06/08 07:49:25;;;;;;;38.90;24.50;;;;;;;16.21;100.00;99106.64;273018;1265;22873;-87
2023/06/08 07:55:28;;;;;;;38.40;25.10;;;;;;;16.31;100.00;99106.88;273897;1265;22198;-88
2023/06/08 08:01:51;;;;;;;37.80;22.40;;;;;;;16.43;100.00;99103.91;272258;1266;23277;-86
2023/06/08 08:08:19;;;;;;;37.10;24.60;;;;;;;16.51;100.00;99098.94;273954;1265;22852;-88
2023/06/08 08:14:25;;;;;;;40.90;26.80;;;;;;;16.62;100.00;99104.81;273634;1267;22539;-86
2023/06/08 08:21:03;;;;;;;45.40;29.10;;;;;;;16.70;100.00;99106.38;272691;1266;22316;-87
2023/06/08 08:27:06;;;;;;;42.40;28.80;;;;;;;16.69;100.00;99108.69;273956;1266;22387;-87
2023/06/08 08:33:08;;;;;;;47.80;30.10;;;;;;;16.72;100.00;99109.36;273256;1265;22449;-88
2023/06/08 08:39:11;;;;;;;46.50;30.00;;;;;;;16.75;100.00;99108.77;273311;1267;22409;-86
2023/06/08 08:45:19;;;;;;;44.80;28.70;;;;;;;16.85;100.00;99104.77;273721;1267;22326;-87
2023/06/08 08:51:43;;;;;;;42.20;29.20;;;;;;;16.95;100.00;99105.52;273350;1267;22268;-87
2023/06/08 08:57:45;;;;;;;48.80;31.90;;;;;;;17.07;100.00;99100.94;273711;1267;23324;-87
2023/06/08 09:04:07;;;;;;;40.50;28.90;;;;;;;17.23;100.00;99104.04;265054;1267;10001939;-87
2023/06/08 09:10:34;;;;;;;40.10;28.70;;;;;;;17.52;100.00;99103.02;273212;1267;22405;-87
2023/06/08 09:16:51;;;;;;;32.60;23.10;;;;;;;17.76;100.00;99101.85;273159;1266;23373;-88
2023/06/08 09:23:15;;;;;;;31.50;22.70;;;;;;;17.92;100.00;99100.95;273499;1267;22333;-87
2023/06/08 09:30:05;;;;;;;31.80;21.70;;;;;;;17.97;100.00;99098.73;272659;1258;22316;-87
2023/06/08 09:36:17;;;;;;;34.00;23.80;;;;;;;18.10;100.00;99097.25;273667;1267;22192;-87
2023/06/08 09:42:46;;;;;;;30.20;22.30;;;;;;;18.43;100.00;99093.80;273787;1267;22192;-87
2023/06/08 09:49:41;;;;;;;;;;;;;;;;;;;;;
2023/06/08 09:56:07;;;;;;;27.30;20.80;;;;;;;19.45;100.00;99078.35;271422;1267;22567;-88
2023/06/08 10:03:02;;;;;;;22.00;16.90;;;;;;;20.07;100.00;99072.40;271440;1267;22666;-87
2023/06/08 10:09:28;;;;;;;25.30;17.90;;;;;;;20.27;100.00;99069.37;272170;1267;22580;-86
2023/06/08 10:15:55;;;;;;;23.80;17.70;;;;;;;20.14;100.00;99065.33;271761;1266;22539;-86
2023/06/08 10:21:57;;;;;;;20.00;15.50;;;;;;;20.52;99.99;99062.80;271729;1267;25406;-87
2023/06/08 10:28:21;;;;;;;17.90;12.80;;;;;;;20.44;98.66;99065.80;273445;1266;22441;-87
2023/06/08 10:34:29;;;;;;;13.70;11.00;;;;;;;20.27;97.83;99059.74;273834;1256;22321;-86
2023/06/08 10:40:56;;;;;;;15.00;10.70;;;;;;;20.34;97.45;99057.11;273545;1265;22430;-87
2023/06/08 10:47:18;;;;;;;13.70;9.50;;;;;;;20.39;95.66;99051.73;273930;1266;22393;-87
2023/06/08 10:53:40;;;;;;;16.80;13.40;;;;;;;20.96;95.66;99048.81;273737;1267;23139;-86
2023/06/08 10:59:45;;;;;;;20.40;15.20;;;;;;;21.11;93.57;99045.27;273881;1267;22329;-87
2023/06/08 11:06:02;;;;;;;20.30;14.80;;;;;;;21.10;92.89;99031.80;272248;1264;22580;-89
2023/06/08 11:12:51;;;;;;;19.40;12.90;;;;;;;21.05;91.72;99020.73;273797;1266;22367;-88
2023/06/08 11:19:00;;;;;;;15.10;13.00;;;;;;;20.89;91.18;99016.65;273816;1267;23398;-87
2023/06/08 11:25:03;;;;;;;17.80;12.00;;;;;;;21.00;91.16;99009.08;273436;1258;22604;-87
2023/06/08 11:31:09;;;;;;;15.00;11.30;;;;;;;21.97;90.60;98995.09;273925;1266;22313;-88
2023/06/08 11:37:13;;;;;;;14.90;10.50;;;;;;;23.05;88.69;98986.81;273754;1267;22294;-88
2023/06/08 11:43:15;;;;;;;12.70;10.10;;;;;;;23.44;86.36;98982.96;273772;1266;22570;-87
2023/06/08 11:49:25;;;;;;;10.30;9.10;;;;;;;23.13;84.50;98978.83;273834;1266;22316;-88
2023/06/08 11:55:28;;;;;;;12.80;9.80;;;;;;;23.16;83.19;98970.10;273735;1266;23881;-87
2023/06/08 12:01:30;;;;;;;12.50;9.60;;;;;;;23.33;81.61;98963.33;273786;1262;22343;-88
2023/06/08 12:07:34;;;;;;;12.80;9.30;;;;;;;23.16;81.44;98953.19;274022;1266;22313;-88
2023/06/08 12:14:11;;;;;;;10.40;8.70;;;;;;;23.28;80.10;98949.77;273930;1266;22932;-87
2023/06/08 12:20:15;;;;;;;10.30;8.90;;;;;;;23.16;78.94;98948.49;273774;1259;22429;-87
2023/06/08 12:26:17;;;;;;;11.90;9.00;;;;;;;22.90;78.56;98948.08;271577;1263;26615;-86
2023/06/08 12:32:32;;;;;;;12.10;8.70;;;;;;;22.67;78.38;98948.21;273194;1267;22605;-87
2023/06/08 12:38:35;;;;;;;12.30;9.20;;;;;;;22.55;77.97;98946.02;273772;1265;23093;-86
2023/06/08 12:44:37;;;;;;;10.40;8.80;;;;;;;22.41;77.15;98940.89;274021;1265;23032;-86
2023/06/08 12:50:39;;;;;;;12.20;9.00;;;;;;;22.20;76.27;98935.92;273892;1264;22442;-87
2023/06/08 12:56:41;;;;;;;11.80;8.90;;;;;;;22.21;75.84;98936.43;272182;1265;22324;-87
2023/06/08 13:02:43;;;;;;;9.70;7.90;;;;;;;22.31;75.79;98933.59;273994;1263;22305;-85
2023/06/08 13:08:46;;;;;;;8.40;7.60;;;;;;;22.32;75.38;98928.14;273945;1265;22436;-87
2023/06/08 13:14:50;;;;;;;10.90;8.80;;;;;;;22.26;74.93;98922.49;273783;1265;23605;-86
2023/06/08 13:20:57;;;;;;;9.60;7.90;;;;;;;22.15;74.64;98922.67;273731;1265;22381;-87
2023/06/08 13:27:02;;;;;;;9.90;7.60;;;;;;;22.18;74.51;98920.88;273736;1265;22552;-86
2023/06/08 13:33:11;;;;;;;11.20;8.00;;;;;;;22.09;73.24;98916.66;273758;1265;22404;-87
2023/06/08 13:39:32;;;;;;;9.00;8.00;;;;;;;21.99;73.64;98918.95;273592;1266;22186;-86
2023/06/08 13:46:31;;;;;;;;;;;;;;;;;;;;;
2023/06/08 13:53:14;;;;;;;8.90;7.90;;;;;;;21.99;73.07;98926.29;272577;1266;22219;-86
2023/06/08 13:59:17;;;;;;;12.20;8.10;;;;;;;21.75;73.14;98931.18;271807;1260;23736;-86
2023/06/08 14:05:20;;;;;;;12.00;8.70;;;;;;;21.57;73.08;98930.88;271422;1256;24929;-87
2023/06/08 14:11:22;;;;;;;9.70;8.30;;;;;;;21.60;73.94;98921.80;273942;1266;22410;-87
2023/06/08 14:17:27;;;;;;;9.80;8.20;;;;;;;21.80;74.24;98915.24;272606;1266;23269;-89
2023/06/08 14:23:39;;;;;;;10.80;9.50;;;;;;;22.09;74.15;98909.80;272876;1265;22330;-86
2023/06/08 14:29:45;;;;;;;12.60;9.00;;;;;;;22.19;73.56;98908.71;272124;1266;22508;-87
2023/06/08 14:35:51;;;;;;;9.30;8.30;;;;;;;22.36;73.46;98906.02;272679;1266;22340;-85
2023/06/08 14:42:00;;;;;;;10.60;8.30;;;;;;;22.20;72.90;98908.10;273994;1266;22203;-85
2023/06/08 14:48:16;;;;;;;;;;;;;;;;;;;;;
2023/06/08 14:55:42;;;;;;;9.60;7.70;;;;;;;21.78;73.07;98910.54;273746;1266;23541;-86
2023/06/08 15:02:17;;;;;;;12.50;8.30;;;;;;;21.90;73.16;98900.70;273757;1266;22380;-87
2023/06/08 15:09:01;;;;;;;10.90;8.60;;;;;;;21.99;73.37;98906.84;273521;1266;22302;-87
2023/06/08 15:16:04;;;;;;;;;;;;;;;;;;;;;
2023/06/08 15:22:37;;;;;;;9.10;8.00;;;;;;;21.59;73.46;98898.04;272722;1266;22549;-86
2023/06/08 15:29:09;;;;;;;9.70;8.50;;;;;;;21.42;73.59;98888.19;272958;1266;22214;-88
2023/06/08 15:35:43;;;;;;;12.40;8.40;;;;;;;21.35;74.21;98880.02;273750;1266;22324;-87
2023/06/08 15:42:28;;;;;;;9.80;7.70;;;;;;;21.35;74.55;98876.37;272687;1268;22203;-85
2023/06/08 15:49:12;;;;;;;8.80;7.20;;;;;;;21.21;74.71;98886.05;273299;1268;22260;-90
2023/06/08 15:55:43;;;;;;;9.70;7.80;;;;;;;21.05;75.56;98882.45;272866;1268;23356;-88
2023/06/08 16:01:57;;;;;;;9.20;7.40;;;;;;;21.00;75.91;98882.21;272518;1269;23301;-87
2023/06/08 16:08:15;;;;;;;8.60;6.70;;;;;;;21.00;76.04;98882.53;273034;1268;22253;-85
2023/06/08 16:14:34;;;;;;;7.10;6.20;;;;;;;20.94;76.27;98887.80;271121;1268;23029;-86
2023/06/08 16:20:47;;;;;;;7.40;6.40;;;;;;;20.84;76.46;98887.00;272909;1268;22347;-88
2023/06/08 16:27:29;;;;;;;8.60;6.00;;;;;;;20.81;76.85;98885.36;273190;1268;22501;-86
2023/06/08 16:33:38;;;;;;;7.10;6.10;;;;;;;20.71;76.96;98884.55;272817;1269;22458;-89
2023/06/08 16:48:00;;;;;;;7.70;6.30;;;;;;;20.54;78.17;98875.33;264394;1268;10144768;-87
2023/06/08 16:54:13;;;;;;;11.40;8.40;;;;;;;20.47;78.26;98874.75;272069;1269;22520;-86
2023/06/08 17:00:20;;;;;;;10.60;8.20;;;;;;;20.36;78.87;98876.10;273048;1266;22231;-86
2023/06/08 19:46:21;;;;;;;16.30;12.30;;;;;;;18.46;90.97;98881.44;273292;1266;22328;-87
2023/06/08 19:53:14;;;;;;;16.80;13.00;;;;;;;18.33;91.71;98872.91;272556;1269;22248;-87
2023/06/08 20:00:40;;;;;;;15.90;12.00;;;;;;;18.24;92.39;98876.05;274249;1266;22195;-87
2023/06/08 20:07:55;;;;;;;16.10;12.40;;;;;;;18.16;93.13;98870.67;273971;1266;22183;-86
2023/06/08 20:13:58;;;;;;;13.40;11.00;;;;;;;18.00;93.02;98873.45;273871;1266;22971;-87
2023/06/08 20:20:25;;;;;;;12.70;11.00;;;;;;;17.89;94.11;98873.70;273173;1266;22537;-87
2023/06/08 20:35:59;;;;;;;15.00;10.80;;;;;;;17.76;95.13;98877.27;271753;1266;22348;-86
2023/06/08 20:42:52;;;;;;;14.50;10.90;;;;;;;17.57;96.02;98876.85;271197;1267;22573;-85
2023/06/08 20:49:18;;;;;;;14.70;11.00;;;;;;;17.48;96.31;98874.80;270842;1266;22546;-85
2023/06/08 21:05:07;;;;;;;15.60;11.60;;;;;;;17.36;97.22;98869.40;269996;1275;22557;-87
2023/06/08 21:11:09;;;;;;;21.40;14.60;;;;;;;17.22;98.06;98867.02;271455;1266;22150;-86
2023/06/08 21:18:15;;;;;;;38.60;23.70;;;;;;;17.15;98.90;98862.63;272571;1267;23782;-87
2023/06/08 21:25:59;;;;;;;26.40;18.00;;;;;;;17.12;99.36;98858.81;271725;1271;22352;-88
2023/06/08 21:33:04;;;;;;;17.10;12.90;;;;;;;17.13;99.87;98860.06;271556;1270;22666;-86
2023/06/08 21:39:31;;;;;;;17.40;12.70;;;;;;;17.13;100.00;98858.41;270827;1269;22886;-86
2023/06/08 21:46:57;;;;;;;15.10;12.70;;;;;;;17.04;100.00;98857.45;269887;1270;22971;-87
2023/06/08 22:25:27;;;;;;;15.90;12.90;;;;;;;16.49;100.00;98852.96;274342;1267;22765;-86
2023/06/08 22:31:33;;;;;;;14.10;10.90;;;;;;;16.46;100.00;98851.67;274248;1266;22671;-86
2023/06/08 22:38:23;;;;;;;16.20;11.60;;;;;;;16.45;100.00;98853.11;274033;1270;22484;-87
2023/06/08 22:44:25;;;;;;;17.00;12.30;;;;;;;16.39;100.00;98850.25;272196;1267;22551;-86
2023/06/08 22:51:08;;;;;;;16.40;12.80;;;;;;;16.27;100.00;98848.91;274012;1266;23117;-86
2023/06/08 23:06:22;;;;;;;19.40;15.00;;;;;;;16.27;100.00;98853.64;273585;1269;23256;-86
2023/06/08 23:21:19;;;;;;;20.50;16.10;;;;;;;16.26;100.00;98848.30;273248;1279;22238;-87
2023/06/08 23:43:09;;;;;;;19.80;15.30;;;;;;;16.14;100.00;98833.00;270900;1267;24188;-86
2023/06/08 23:57:55;;;;;;;23.60;17.40;;;;;;;15.98;100.00;98826.52;273530;1266;22201;-87
